This is the latest recevied weather packets stored in our database for station/object K6CRS-15. If no packets are shown the sender has not sent any weather packets the latest 10 day(s).
| Time | Temp. | Humidity | Pressure | Rain* | Wind** | Luminosity | Snow |
|---|---|---|---|---|---|---|---|
| 1777455942 | 9.44° C | 77% | 1016.1 hPa | 0 mm | - | - | - |
| 1777455045 | 10° C | 75% | 1016 hPa | 0 mm | - | - | - |
| 1777454145 | 10° C | 77% | 1016.1 hPa | 0 mm | - | - | - |
| 1777452346 | 9.44° C | 77% | 1016.5 hPa | 0 mm | - | - | - |
| 1777450559 | 10° C | 76% | 1016.9 hPa | 0 mm | - | - | - |
| 1777449641 | 10° C | 77% | 1017.1 hPa | 0 mm | - | - | - |
| 1777441549 | 11.11° C | 72% | 1016.9 hPa | 0 mm | - | - | - |
| 1777437945 | 11.67° C | 70% | 1017.1 hPa | 0 mm | - | - | - |
| 1777433459 | 13.33° C | 65% | 1016.8 hPa | 0 mm | - | - | - |
| 1777430743 | 15° C | 62% | 1016.5 hPa | 0 mm | - | - | - |
| 1777429851 | 15.56° C | 62% | 1016.4 hPa | 0 mm | - | - | - |
| 1777423546 | 18.89° C | 52% | 1016 hPa | 0 mm | - | - | - |
| 1777419047 | 18.89° C | 49% | 1015.9 hPa | 0 mm | - | - | - |
| 1777415446 | 20.56° C | 46% | 1015.8 hPa | 0 mm | - | - | - |
| 1777408256 | 21.67° C | 40% | 1015.8 hPa | 0 mm | - | - | - |
| 1777406456 | 21.67° C | 39% | 1016.2 hPa | 0 mm | - | - | - |
| 1777401963 | 20° C | 44% | 1016.8 hPa | 0 mm | - | - | - |
| 1777401052 | 20° C | 45% | 1017 hPa | 0 mm | - | - | - |
| 1777396562 | 17.78° C | 52% | 1017.4 hPa | 0 mm | - | - | - |
| 1777395646 | 17.22° C | 52% | 1017.4 hPa | 0 mm | - | - | - |
| 1777394753 | 16.67° C | 53% | 1017.5 hPa | 0 mm | - | - | - |
| 1777382161 | 7.78° C | 82% | 1016.5 hPa | 0 mm | - | - | - |
| 1777369549 | 10° C | 75% | 1016.3 hPa | 0 mm | - | - | - |
| 1777366855 | 8.89° C | 80% | 1017 hPa | 0 mm | - | - | - |
| 1777361449 | 8.89° C | 82% | 1017.8 hPa | 0 mm | - | - | - |
* Rain latest hour (hover to see other rain measurements)
** Current wind speed in m/s (hover to see current wind gust speed)